createdAt,value
2023-06-04T00:01:45.425Z,90857.34
2023-06-04T00:04:11.741Z,90857.78
2023-06-04T00:06:37.921Z,90853.94
2023-06-04T00:09:04.080Z,90852.63
2023-06-04T00:11:30.235Z,90857.22
2023-06-04T00:13:56.686Z,90857.16
2023-06-04T00:16:22.924Z,90845.41
2023-06-04T00:18:49.121Z,90850.75
2023-06-04T00:21:15.283Z,90848.69
2023-06-04T00:23:41.470Z,90855.25
2023-06-04T00:26:07.667Z,90849.25
2023-06-04T00:28:33.831Z,90842.03
2023-06-04T00:30:59.969Z,90842.16
2023-06-04T00:33:26.133Z,90841.88
2023-06-04T00:35:52.307Z,90837.75
2023-06-04T00:38:18.442Z,90834.38
2023-06-04T00:40:44.626Z,90836.34
2023-06-04T00:43:10.779Z,90834.72
2023-06-04T00:45:36.953Z,90834.34
2023-06-04T00:48:03.177Z,90833.00
2023-06-04T00:50:29.429Z,90830.91
2023-06-04T00:52:55.581Z,90828.84
2023-06-04T00:55:21.769Z,90832.44
2023-06-04T00:57:47.942Z,90828.63
2023-06-04T01:00:14.107Z,90826.13
2023-06-04T01:02:40.278Z,90827.13
2023-06-04T01:05:06.516Z,90823.03
2023-06-04T01:07:32.668Z,90821.41
2023-06-04T01:09:58.799Z,90821.84
2023-06-04T01:12:25.017Z,90822.53
2023-06-04T01:14:51.172Z,90816.97
2023-06-04T01:17:17.484Z,90826.13
2023-06-04T01:19:43.709Z,90822.63
2023-06-04T01:22:09.867Z,90825.03
2023-06-04T01:24:36.026Z,90825.03
2023-06-04T01:27:02.175Z,90828.28
2023-06-04T01:29:28.322Z,90827.50
2023-06-04T01:31:54.513Z,90828.56
2023-06-04T01:34:20.725Z,90833.13
2023-06-04T01:36:46.891Z,90829.06
2023-06-04T01:39:13.218Z,90832.41
2023-06-04T01:41:39.379Z,90825.03
2023-06-04T01:44:05.512Z,90826.84
2023-06-04T01:46:31.748Z,90828.50
2023-06-04T01:48:57.913Z,90825.91
2023-06-04T01:51:24.061Z,90827.34
2023-06-04T01:53:50.222Z,90830.16
2023-06-04T01:56:16.426Z,90822.81
2023-06-04T01:58:42.602Z,90824.41
2023-06-04T02:01:08.815Z,90818.88
2023-06-04T02:03:35.113Z,90829.22
2023-06-04T02:06:01.290Z,90821.69
2023-06-04T02:08:27.435Z,90830.84
2023-06-04T02:10:53.609Z,90823.91
2023-06-04T02:13:19.749Z,90822.75
2023-06-04T02:15:45.893Z,90823.84
2023-06-04T02:18:12.054Z,90822.75
2023-06-04T02:20:38.260Z,90819.09
2023-06-04T02:23:04.419Z,90829.06
2023-06-04T02:25:30.656Z,90828.13
2023-06-04T02:27:56.872Z,90833.50
2023-06-04T02:30:22.995Z,90833.28
2023-06-04T02:32:49.863Z,90836.47
2023-06-04T02:35:17.156Z,90835.09
2023-06-04T02:37:43.345Z,90838.25
2023-06-04T02:40:09.510Z,90842.03
2023-06-04T02:42:35.676Z,90843.09
2023-06-04T02:45:01.854Z,90837.34
2023-06-04T02:47:28.012Z,90836.06
2023-06-04T02:49:54.189Z,90836.53
2023-06-04T02:52:20.346Z,90829.84
2023-06-04T02:54:46.525Z,90839.31
2023-06-04T02:57:12.815Z,90841.78
2023-06-04T02:59:39.011Z,90849.22
2023-06-04T03:02:05.219Z,90830.03
2023-06-04T03:04:31.366Z,90843.97
2023-06-04T03:06:57.516Z,90845.97
2023-06-04T03:09:23.683Z,90835.03
2023-06-04T03:11:49.923Z,90842.53
2023-06-04T03:14:16.055Z,90844.25
2023-06-04T03:16:42.188Z,90839.47
2023-06-04T03:19:08.335Z,90841.03
2023-06-04T03:21:34.473Z,90844.19
2023-06-04T03:24:00.771Z,90846.09
2023-06-04T03:26:27.104Z,90846.28
2023-06-04T03:28:53.251Z,90852.94
2023-06-04T03:31:19.502Z,90844.56
2023-06-04T03:33:45.698Z,90848.34
2023-06-04T03:36:11.857Z,90848.31
2023-06-04T03:38:38.038Z,90846.56
2023-06-04T03:41:04.182Z,90856.69
2023-06-04T03:43:30.330Z,90855.97
2023-06-04T03:45:56.483Z,90847.34
2023-06-04T03:48:22.606Z,90847.00
2023-06-04T03:50:48.728Z,90860.25
2023-06-04T03:53:14.887Z,90851.25
2023-06-04T03:55:41.034Z,90854.91
2023-06-04T03:58:07.177Z,90853.84
2023-06-04T04:00:33.342Z,90858.63
2023-06-04T04:02:59.626Z,90861.66
2023-06-04T04:05:25.842Z,90864.06
2023-06-04T04:07:52.047Z,90859.84
2023-06-04T04:10:18.232Z,90863.66
2023-06-04T04:12:44.481Z,90860.00
2023-06-04T04:15:10.667Z,90858.44
2023-06-04T04:17:36.898Z,90855.44
2023-06-04T04:20:03.076Z,90862.28
2023-06-04T04:22:29.248Z,90856.28
2023-06-04T04:24:55.420Z,90859.88
2023-06-04T04:27:21.590Z,90850.19
2023-06-04T04:29:47.732Z,90855.28
2023-06-04T04:32:13.859Z,90860.50
2023-06-04T04:34:40.028Z,90856.94
2023-06-04T04:37:06.167Z,90863.59
2023-06-04T04:39:32.315Z,90866.25
2023-06-04T04:41:58.456Z,90859.41
2023-06-04T04:44:24.606Z,90859.28
2023-06-04T04:46:50.842Z,90859.72
2023-06-04T04:49:17.050Z,90866.78
2023-06-04T04:51:43.212Z,90863.59
2023-06-04T04:54:09.360Z,90864.50
2023-06-04T04:56:35.516Z,90858.13
2023-06-04T04:59:01.637Z,90858.47
2023-06-04T05:01:27.834Z,90867.31
2023-06-04T05:03:54.041Z,90860.88
2023-06-04T05:06:20.228Z,90868.53
2023-06-04T05:08:46.404Z,90863.84
2023-06-04T05:11:12.578Z,90869.59
2023-06-04T05:13:38.728Z,90865.19
2023-06-04T05:16:04.913Z,90863.38
2023-06-04T05:18:31.076Z,90874.63
2023-06-04T05:20:57.278Z,90873.84
2023-06-04T05:23:23.597Z,90875.78
2023-06-04T05:25:49.790Z,90879.34
2023-06-04T05:28:15.965Z,90884.28
2023-06-04T05:30:42.132Z,90885.88
2023-06-04T05:33:08.309Z,90883.66
2023-06-04T05:35:34.508Z,90879.81
2023-06-04T05:38:00.675Z,90887.22
2023-06-04T05:40:26.833Z,90895.47
2023-06-04T05:42:53.001Z,90881.66
2023-06-04T05:45:19.174Z,90885.28
2023-06-04T05:47:45.349Z,90884.91
2023-06-04T05:50:11.681Z,90879.56
2023-06-04T05:52:37.897Z,90878.00
2023-06-04T05:55:04.054Z,90882.84
2023-06-04T05:57:30.185Z,90879.97
2023-06-04T05:59:56.326Z,90881.72
2023-06-04T06:02:22.602Z,90878.16
2023-06-04T06:04:48.858Z,90874.69
2023-06-04T06:07:15.071Z,90871.44
2023-06-04T06:09:41.246Z,90875.50
2023-06-04T06:12:07.423Z,90875.63
2023-06-04T06:14:33.592Z,90880.00
2023-06-04T06:16:59.727Z,90868.25
2023-06-04T06:19:25.873Z,90872.72
2023-06-04T06:21:52.040Z,90864.25
2023-06-04T06:24:18.217Z,90873.00
2023-06-04T06:26:44.393Z,90873.72
2023-06-04T06:29:10.550Z,90874.03
2023-06-04T06:31:36.882Z,90878.25
2023-06-04T06:34:03.099Z,90867.22
2023-06-04T06:36:29.230Z,90865.41
2023-06-04T06:38:55.353Z,90865.97
2023-06-04T06:41:21.498Z,90875.66
2023-06-04T06:43:47.645Z,90874.06
2023-06-04T06:46:13.813Z,90867.09
2023-06-04T06:48:40.044Z,90863.50
2023-06-04T06:51:06.366Z,90859.91
2023-06-04T06:53:32.740Z,90864.28
2023-06-04T06:55:58.917Z,90865.94
2023-06-04T06:58:27.153Z,90869.63
2023-06-04T07:00:53.493Z,90875.13
2023-06-04T07:03:19.910Z,90875.31
2023-06-04T07:05:48.544Z,90881.09
2023-06-04T07:08:14.783Z,90879.47
2023-06-04T07:10:44.722Z,90886.81
2023-06-04T07:13:10.920Z,90884.47
2023-06-04T07:15:37.196Z,90881.16
2023-06-04T07:18:03.632Z,90871.25
2023-06-04T07:20:29.908Z,90870.09
2023-06-04T07:22:56.138Z,90864.22
2023-06-04T07:25:22.354Z,90867.94
2023-06-04T07:27:48.547Z,90870.56
2023-06-04T07:30:14.786Z,90857.19
2023-06-04T07:32:41.041Z,90858.72
2023-06-04T07:35:07.405Z,90867.06
2023-06-04T07:37:33.793Z,90856.47
2023-06-04T07:39:59.995Z,90859.94
2023-06-04T07:42:26.219Z,90860.88
2023-06-04T07:44:52.434Z,90857.53
2023-06-04T07:47:18.625Z,90848.97
2023-06-04T07:49:58.089Z,90855.22
2023-06-04T07:52:27.769Z,90844.75
2023-06-04T07:54:54.006Z,90845.88
2023-06-04T07:57:20.196Z,90848.97
2023-06-04T07:59:46.391Z,90840.97
2023-06-04T08:02:12.622Z,90847.00
2023-06-04T08:04:40.206Z,90846.69
2023-06-04T08:07:06.518Z,90832.59
2023-06-04T08:09:32.814Z,90823.97
2023-06-04T08:11:59.038Z,90838.50
2023-06-04T08:14:25.252Z,90830.34
2023-06-04T08:16:51.645Z,90823.59
2023-06-04T08:19:17.894Z,90817.31
2023-06-04T08:21:44.082Z,90814.59
2023-06-04T08:24:10.435Z,90815.97
2023-06-04T08:26:36.832Z,90811.34
2023-06-04T08:29:03.145Z,90808.34
2023-06-04T08:31:29.463Z,90814.59
2023-06-04T08:33:55.809Z,90811.16
2023-06-04T08:36:25.047Z,90815.00
2023-06-04T08:38:52.808Z,90811.53
2023-06-04T08:44:05.643Z,90805.59
2023-06-04T08:46:31.933Z,90813.53
2023-06-04T08:49:01.275Z,90809.06
2023-06-04T08:51:29.071Z,90814.75
2023-06-04T08:53:58.710Z,90814.34
2023-06-04T08:56:24.990Z,90813.69
2023-06-04T08:58:52.617Z,90807.00
2023-06-04T09:01:22.589Z,90813.13
2023-06-04T09:03:50.435Z,90805.38
2023-06-04T09:06:16.667Z,90806.84
2023-06-04T09:08:43.967Z,90799.44
2023-06-04T09:11:10.463Z,90794.28
2023-06-04T09:13:37.709Z,90801.91
2023-06-04T09:16:05.115Z,90812.59
2023-06-04T09:18:31.442Z,90798.34
2023-06-04T09:21:00.499Z,90798.81
2023-06-04T09:23:26.859Z,90790.13
2023-06-04T09:25:53.111Z,90782.06
2023-06-04T09:28:29.579Z,90789.44
2023-06-04T09:31:01.569Z,90783.16
2023-06-04T09:33:27.918Z,90791.41
2023-06-04T09:36:00.645Z,90781.56
2023-06-04T09:38:29.634Z,90779.75
2023-06-04T09:40:56.056Z,90778.41
2023-06-04T09:43:22.349Z,90782.75
2023-06-04T09:45:48.645Z,90773.72
2023-06-04T09:48:16.939Z,90786.59
2023-06-04T09:50:43.387Z,90791.91
2023-06-04T09:53:09.810Z,90793.94
2023-06-04T09:55:36.145Z,90787.88
2023-06-04T09:58:02.438Z,90783.19
2023-06-04T10:00:28.957Z,90776.38
2023-06-04T10:02:55.411Z,90777.25
2023-06-04T10:05:44.388Z,90772.94
2023-06-04T10:08:08.732Z,90777.09
2023-06-04T10:10:34.998Z,90773.97
2023-06-04T10:13:02.523Z,90770.00
2023-06-04T10:15:29.914Z,90767.19
2023-06-04T10:17:56.181Z,90769.03
2023-06-04T10:20:22.470Z,90762.94
2023-06-04T10:22:48.740Z,90773.78
2023-06-04T10:25:14.931Z,90770.31
2023-06-04T10:27:41.162Z,90761.94
2023-06-04T10:30:11.664Z,90758.19
2023-06-04T10:32:45.082Z,90768.72
2023-06-04T10:35:11.415Z,90761.84
2023-06-04T10:37:37.792Z,90756.38
2023-06-04T10:40:04.014Z,90767.84
2023-06-04T10:42:30.199Z,90758.88
2023-06-04T10:44:58.181Z,90758.78
2023-06-04T10:47:24.674Z,90753.91
2023-06-04T10:49:50.955Z,90753.91
2023-06-04T10:52:17.187Z,90746.69
2023-06-04T10:54:44.522Z,90757.31
2023-06-04T10:59:52.484Z,90748.84
2023-06-04T11:02:21.055Z,90749.31
2023-06-04T11:05:10.465Z,90741.88
2023-06-04T11:13:26.729Z,90745.72
2023-06-04T11:16:05.387Z,90749.63
2023-06-04T11:18:42.079Z,90747.88
2023-06-04T11:21:10.360Z,90742.31
2023-06-04T11:23:36.807Z,90750.28
2023-06-04T11:26:03.093Z,90744.16
2023-06-04T11:31:15.320Z,90745.19
2023-06-04T11:33:42.644Z,90739.44
2023-06-04T11:36:08.916Z,90742.28
2023-06-04T11:38:43.738Z,90736.75
2023-06-04T11:41:11.070Z,90741.50
2023-06-04T11:43:37.303Z,90737.75
2023-06-04T11:46:06.675Z,90735.72
2023-06-04T11:48:33.238Z,90733.16
2023-06-04T11:50:59.485Z,90733.25
2023-06-04T11:53:25.678Z,90730.88
2023-06-04T11:55:51.868Z,90734.63
2023-06-04T11:58:18.062Z,90729.34
2023-06-04T12:00:44.284Z,90734.63
2023-06-04T12:03:10.594Z,90721.84
2023-06-04T12:05:36.928Z,90728.28
2023-06-04T12:08:03.156Z,90723.03
2023-06-04T12:10:29.366Z,90725.56
2023-06-04T12:12:55.646Z,90726.91
2023-06-04T12:15:21.958Z,90724.22
2023-06-04T12:17:48.369Z,90718.56
2023-06-04T12:20:14.558Z,90714.31
2023-06-04T12:22:40.752Z,90715.97
2023-06-04T12:25:06.965Z,90717.50
2023-06-04T12:27:33.228Z,90708.16
2023-06-04T12:29:59.425Z,90708.81
2023-06-04T12:32:25.689Z,90707.13
2023-06-04T12:34:52.056Z,90704.31
2023-06-04T12:37:18.234Z,90705.31
2023-06-04T12:39:44.433Z,90695.06
2023-06-04T12:42:10.623Z,90699.81
2023-06-04T12:44:36.813Z,90694.53
2023-06-04T12:47:03.181Z,90694.47
2023-06-04T12:49:29.533Z,90690.31
2023-06-04T12:51:55.761Z,90686.16
2023-06-04T12:54:21.973Z,90688.09
2023-06-04T12:56:48.316Z,90665.81
2023-06-04T12:59:14.525Z,90677.63
2023-06-04T13:01:40.772Z,90673.50
2023-06-04T13:04:07.091Z,90670.97
2023-06-04T13:06:33.319Z,90664.84
2023-06-04T13:08:59.527Z,90674.31
2023-06-04T13:11:25.729Z,90667.16
2023-06-04T13:13:51.899Z,90664.28
2023-06-04T13:16:18.135Z,90656.75
2023-06-04T13:18:44.346Z,90668.69
2023-06-04T13:21:10.556Z,90662.34
2023-06-04T13:23:49.572Z,90659.22
2023-06-04T13:26:16.777Z,90658.50
2023-06-04T13:28:43.110Z,90649.81
2023-06-04T13:31:09.581Z,90650.28
2023-06-04T13:33:35.896Z,90652.38
2023-06-04T13:36:02.112Z,90656.31
2023-06-04T13:38:28.324Z,90654.00
2023-06-04T13:40:54.524Z,90659.84
2023-06-04T13:43:20.709Z,90654.66
2023-06-04T13:45:47.004Z,90659.56
2023-06-04T13:48:13.301Z,90660.38
2023-06-04T13:50:39.569Z,90663.50
2023-06-04T13:53:05.881Z,90662.38
2023-06-04T13:55:32.034Z,90664.66
2023-06-04T13:57:58.201Z,90665.88
2023-06-04T14:00:24.360Z,90669.47
2023-06-04T14:02:50.562Z,90665.59
2023-06-04T14:05:16.840Z,90667.81
2023-06-04T14:10:27.256Z,90668.31
2023-06-04T14:12:55.809Z,90677.03
2023-06-04T14:15:22.016Z,90678.16
2023-06-04T14:17:48.270Z,90678.28
2023-06-04T14:20:14.521Z,90683.13
2023-06-04T14:22:40.730Z,90676.72
2023-06-04T14:25:07.010Z,90686.69
2023-06-04T14:27:33.217Z,90682.03
2023-06-04T14:29:59.541Z,90696.56
2023-06-04T14:32:25.861Z,90700.19
2023-06-04T14:34:52.090Z,90694.31
2023-06-04T14:37:18.280Z,90704.13
2023-06-04T14:39:44.513Z,90701.00
2023-06-04T14:42:10.721Z,90704.03
2023-06-04T14:44:36.931Z,90709.31
2023-06-04T14:47:03.165Z,90716.63
2023-06-04T14:49:29.355Z,90711.78
2023-06-04T14:51:55.574Z,90711.41
2023-06-04T14:54:21.876Z,90717.28
2023-06-04T14:56:48.129Z,90713.19
2023-06-04T14:59:14.316Z,90713.88
2023-06-04T15:01:40.549Z,90715.56
2023-06-04T15:04:06.878Z,90718.25
2023-06-04T15:06:33.048Z,90715.78
2023-06-04T15:08:59.251Z,90717.16
2023-06-04T15:11:25.403Z,90723.31
2023-06-04T15:13:51.596Z,90734.09
2023-06-04T15:16:17.818Z,90741.56
2023-06-04T15:18:44.146Z,90744.22
2023-06-04T15:21:10.783Z,90754.00
2023-06-04T15:23:37.188Z,90757.78
2023-06-04T15:26:03.399Z,90760.09
2023-06-04T15:28:29.606Z,90766.88
2023-06-04T15:30:55.778Z,90773.88
2023-06-04T15:33:21.933Z,90786.13
2023-06-04T15:35:48.079Z,90777.44
2023-06-04T15:38:14.355Z,90789.00
2023-06-04T15:40:40.522Z,90789.22
2023-06-04T15:43:06.681Z,90794.97
2023-06-04T15:45:32.869Z,90794.03
2023-06-04T15:47:59.090Z,90802.75
2023-06-04T15:50:25.309Z,90808.50
2023-06-04T15:52:51.490Z,90803.03
2023-06-04T15:55:17.719Z,90806.41
2023-06-04T15:57:43.917Z,90801.66
2023-06-04T16:00:10.126Z,90803.69
2023-06-04T16:02:36.456Z,90811.09
2023-06-04T16:05:02.664Z,90805.50
2023-06-04T16:07:28.845Z,90806.34
2023-06-04T16:09:55.019Z,90808.34
2023-06-04T16:12:21.188Z,90814.13
2023-06-04T16:14:47.328Z,90806.50
2023-06-04T16:17:13.475Z,90814.53
2023-06-04T16:19:39.629Z,90814.97
2023-06-04T16:22:05.868Z,90822.94
2023-06-04T16:24:33.934Z,90830.22
2023-06-04T16:27:00.125Z,90823.75
2023-06-04T16:29:26.298Z,90820.44
2023-06-04T16:31:52.566Z,90820.28
2023-06-04T16:34:18.811Z,90824.44
2023-06-04T16:36:44.986Z,90827.00
2023-06-04T16:39:11.146Z,90824.97
2023-06-04T16:41:39.844Z,90823.22
2023-06-04T16:44:06.312Z,90821.25
2023-06-04T16:46:35.688Z,90825.78
2023-06-04T16:49:01.953Z,90821.47
2023-06-04T16:51:28.129Z,90834.28
2023-06-04T16:53:54.295Z,90826.00
2023-06-04T16:56:20.489Z,90833.63
2023-06-04T16:58:46.653Z,90840.19
2023-06-04T17:01:12.902Z,90847.53
2023-06-04T17:03:39.201Z,90838.88
2023-06-04T17:06:05.612Z,90842.72
2023-06-04T17:45:08.816Z,90847.09
2023-06-04T18:04:16.020Z,90849.56
2023-06-04T18:06:42.317Z,90853.38
2023-06-04T18:08:45.362Z,90845.28
2023-06-04T18:09:08.585Z,90851.88
2023-06-04T18:11:34.774Z,90851.44
2023-06-04T18:14:05.394Z,90857.59
2023-06-04T18:16:31.695Z,90866.38
2023-06-04T18:18:57.972Z,90860.97
2023-06-04T18:21:24.185Z,90856.38
2023-06-04T18:23:50.395Z,90847.13
2023-06-04T18:26:16.599Z,90854.00
2023-06-04T18:28:42.826Z,90852.81
2023-06-04T18:31:09.021Z,90850.38
2023-06-04T18:33:35.259Z,90861.44
2023-06-04T18:36:01.464Z,90859.81
2023-06-04T18:38:27.648Z,90865.28
2023-06-04T18:40:53.858Z,90868.44
2023-06-04T18:43:20.059Z,90861.72
2023-06-04T18:45:46.273Z,90865.78
2023-06-04T18:48:12.650Z,90863.00
2023-06-04T18:50:41.763Z,90860.03
2023-06-04T18:53:08.023Z,90860.16
2023-06-04T18:55:34.281Z,90856.97
2023-06-04T18:58:00.836Z,90859.94
2023-06-04T19:00:27.015Z,90861.78
2023-06-04T19:02:53.375Z,90855.34
2023-06-04T19:05:19.583Z,90852.69
2023-06-04T19:07:45.797Z,90852.28
2023-06-04T19:10:13.046Z,90865.94
2023-06-04T19:12:40.752Z,90863.69
2023-06-04T19:15:06.913Z,90862.06
2023-06-04T19:17:33.160Z,90858.84
2023-06-04T19:19:59.392Z,90867.50
2023-06-04T19:22:25.606Z,90867.59
2023-06-04T19:24:51.784Z,90871.38
2023-06-04T19:27:17.991Z,90872.63
2023-06-04T19:29:44.168Z,90876.09
2023-06-04T19:32:10.420Z,90876.28
2023-06-04T19:34:36.593Z,90884.69
2023-06-04T19:37:02.813Z,90888.34
2023-06-04T19:39:28.997Z,90891.50
2023-06-04T19:41:55.187Z,90898.53
2023-06-04T19:44:21.370Z,90902.31
2023-06-04T19:46:47.674Z,90901.19
2023-06-04T19:49:14.021Z,90905.00
2023-06-04T19:51:40.194Z,90909.69
2023-06-04T19:54:06.389Z,90910.06
2023-06-04T19:56:32.581Z,90913.53
2023-06-04T19:58:58.765Z,90915.19
2023-06-04T20:01:25.132Z,90910.72
2023-06-04T20:03:51.385Z,90915.88
2023-06-04T20:06:17.637Z,90918.06
2023-06-04T20:08:43.850Z,90912.53
2023-06-04T20:11:10.125Z,90920.28
2023-06-04T20:13:36.503Z,90919.13
2023-06-04T20:16:02.716Z,90923.50
2023-06-04T20:18:28.948Z,90923.72
2023-06-04T20:20:55.296Z,90915.56
2023-06-04T20:23:21.509Z,90918.06
2023-06-04T20:25:47.753Z,90921.22
2023-06-04T20:28:13.988Z,90915.69
2023-06-04T20:30:40.207Z,90919.56
2023-06-04T20:33:06.472Z,90911.25
2023-06-04T20:35:32.751Z,90918.22
2023-06-04T20:37:59.080Z,90916.03
2023-06-04T20:40:25.250Z,90912.50
2023-06-04T20:42:51.551Z,90917.16
2023-06-04T20:45:17.745Z,90922.31
2023-06-04T20:47:43.981Z,90919.47
2023-06-04T20:50:10.236Z,90919.66
2023-06-04T20:52:36.601Z,90924.66
2023-06-04T20:55:02.858Z,90922.53
2023-06-04T20:57:29.078Z,90922.75
2023-06-04T20:59:55.288Z,90921.28
2023-06-04T21:02:21.549Z,90921.69
2023-06-04T21:04:47.825Z,90923.97
2023-06-04T21:07:14.020Z,90924.50
2023-06-04T21:09:40.228Z,90928.66
2023-06-04T21:12:06.388Z,90919.78
2023-06-04T21:14:32.620Z,90934.22
2023-06-04T21:16:58.773Z,90933.28
2023-06-04T21:19:24.977Z,90934.53
2023-06-04T21:21:51.148Z,90939.94
2023-06-04T21:24:17.344Z,90944.13
2023-06-04T21:26:43.509Z,90947.09
2023-06-04T21:29:09.747Z,90939.44
2023-06-04T21:31:35.953Z,90942.59
2023-06-04T21:34:02.156Z,90947.97
2023-06-04T21:36:28.297Z,90939.72
2023-06-04T21:38:54.422Z,90941.91
2023-06-04T21:41:20.607Z,90948.19
2023-06-04T21:43:46.809Z,90943.59
2023-06-04T21:46:13.554Z,90941.34
2023-06-04T21:48:39.719Z,90953.06
2023-06-04T21:51:05.876Z,90945.09
2023-06-04T21:53:32.045Z,90948.50
2023-06-04T21:55:58.273Z,90943.34
2023-06-04T21:58:24.468Z,90942.94
2023-06-04T22:00:50.828Z,90946.34
2023-06-04T22:03:17.100Z,90933.72
2023-06-04T22:05:43.315Z,90934.84
2023-06-04T22:08:09.508Z,90934.75
2023-06-04T22:10:35.653Z,90934.13
2023-06-04T22:13:01.801Z,90922.81
2023-06-04T22:15:27.950Z,90921.88
2023-06-04T22:17:54.192Z,90927.59
2023-06-04T22:20:20.408Z,90932.59
2023-06-04T22:22:46.574Z,90930.25
2023-06-04T22:25:12.691Z,90927.06
2023-06-04T22:27:38.829Z,90934.94
2023-06-04T22:30:05.008Z,90933.28
2023-06-04T22:32:31.189Z,90930.72
2023-06-04T22:34:57.422Z,90932.63
2023-06-04T22:37:23.602Z,90936.44
2023-06-04T22:39:49.748Z,90935.38
2023-06-04T22:42:15.875Z,90932.13
2023-06-04T22:44:42.032Z,90933.69
2023-06-04T22:47:08.236Z,90928.53
2023-06-04T22:49:34.431Z,90928.25
2023-06-04T22:52:00.601Z,90931.00
2023-06-04T22:54:26.819Z,90933.47
2023-06-04T22:56:53.011Z,90923.19
2023-06-04T22:59:19.165Z,90922.84
2023-06-04T23:01:45.364Z,90920.41
2023-06-04T23:04:11.577Z,90923.50
2023-06-04T23:06:37.767Z,90916.31
2023-06-04T23:09:03.957Z,90915.69
2023-06-04T23:11:30.097Z,90905.34
2023-06-04T23:13:56.265Z,90909.66
2023-06-04T23:16:22.408Z,90905.28
2023-06-04T23:18:48.599Z,90905.16
2023-06-04T23:21:14.805Z,90903.50
2023-06-04T23:23:40.958Z,90907.38
2023-06-04T23:26:07.171Z,90903.72
2023-06-04T23:28:33.340Z,90902.38
2023-06-04T23:30:59.482Z,90897.06
2023-06-04T23:33:25.630Z,90892.97
2023-06-04T23:35:51.769Z,90893.69
2023-06-04T23:38:17.919Z,90889.53
2023-06-04T23:40:44.090Z,90885.31
2023-06-04T23:43:10.385Z,90891.13
2023-06-04T23:45:36.570Z,90887.53
2023-06-04T23:48:02.824Z,90892.75
2023-06-04T23:50:28.984Z,90890.50
2023-06-04T23:52:55.149Z,90883.53
2023-06-04T23:55:21.369Z,90889.16
2023-06-04T23:57:47.494Z,90893.53
